To NAV CANADA Home Page Login to a new session Search on AWWS site Disclaimer Vers la page française équivalente Tips FAQ What's new on the site To the Forecasts and Observations / NOTAM section To "File a Flight Plan" website Publications and other links Update of the User's profile FIC Telephone Numbers My Weather Data Folder Route Weather Data Regional Weather Data Local Weather Data To the Forecasts and Observations / NOTAM section
Request Generated 05/24/2018 at 00:08:20 UTC . Weather information available at that time is displayed.


Go to a specific product

Save this request - Inactive

METAR/TAF

OTTAWA/MACDONALD-CARTIER INTL/ON    

METAR CYOW 240000Z 30006KT 15SM FEW220 BKN260 19/M02 A3000 RMK CI1CS4
SLP161 DENSITY ALT 900FT=
METAR CYOW 232300Z 31013G19KT 15SM FEW200 BKN260 22/M05 A2998 RMK
CI1CI4 SLP155 DENSITY ALT 1200FT=
METAR CYOW 232200Z 30015G20KT 15SM FEW180 FEW220 SCT250 23/M03 A2996
RMK AC1CI1CI3 AC TR CI TR SLP148 DENSITY ALT 1400FT=

TAF CYOW 232338Z 2400/2424 31010G20KT P6SM FEW200 BKN260
BECMG 2402/2404 32008KT
FM241100 01007KT P6SM SCT100 BKN230
FM241300 VRB03KT P6SM SCT230
BECMG 2415/2417 23008KT
BECMG 2418/2420 22012G22KT
RMK NXT FCST BY 240300Z=

OTTAWA/GATINEAU/QC    

METAR CYND 240000Z 34005KT 15SM BKN220 19/M04 A3000 RMK CI6 SLP160
DENSITY ALT 700FT=
METAR CYND 232300Z 33014G19KT 15SM BKN220 22/M05 A2997 RMK CI5 SLP153
DENSITY ALT 1000FT=
METAR CYND 232200Z 34012G18KT 300V360 15SM BKN220 23/M04 A2996 RMK
CI5 SLP147 DENSITY ALT 1200FT=

TAF CYND 231739Z 2318/2401 30012G22KT P6SM SCT220
FM232100 30012G22KT P6SM BKN230
BECMG 2322/2324 32007KT
RMK NXT FCST WILL BE ISSUED AT 241245Z=


GRAPHICAL FA CLOUDS & WEATHER FORECASTS
To the Product Selector
Graphical FA gfacn33      

GRAPHICAL FA ICING, TURBULENCE & FREEZING LEVEL FORECASTS
To the Product Selector
Graphical FA gfacn33      

Your time UTC time
Weather data provided by Environment Canada and NAV CANADA